createdAt,value
2023-02-26T00:01:21.155Z,2.80
2023-02-26T00:03:58.445Z,2.00
2023-02-26T00:06:26.594Z,2.92
2023-02-26T00:08:54.759Z,2.30
2023-02-26T00:11:22.308Z,2.22
2023-02-26T00:13:49.452Z,2.20
2023-02-26T00:16:26.521Z,2.20
2023-02-26T00:18:54.086Z,2.20
2023-02-26T00:21:23.216Z,2.50
2023-02-26T00:23:50.488Z,2.40
2023-02-26T00:26:17.328Z,1.77
2023-02-26T00:28:44.475Z,2.28
2023-02-26T00:31:12.108Z,2.33
2023-02-26T00:33:39.388Z,2.63
2023-02-26T00:36:29.348Z,1.77
2023-02-26T00:39:12.643Z,1.90
2023-02-26T00:41:39.699Z,2.00
2023-02-26T00:44:06.720Z,2.22
2023-02-26T00:46:42.697Z,2.22
2023-02-26T00:49:22.902Z,1.60
2023-02-26T00:51:57.666Z,1.95
2023-02-26T00:54:26.365Z,1.75
2023-02-26T00:56:54.652Z,1.73
2023-02-26T00:59:22.512Z,1.77
2023-02-26T01:01:49.684Z,1.88
2023-02-26T01:04:19.495Z,1.67
2023-02-26T01:06:50.111Z,1.52
2023-02-26T01:09:32.542Z,1.60
2023-02-26T01:12:03.755Z,1.70
2023-02-26T01:14:31.873Z,1.85
2023-02-26T01:17:13.656Z,1.95
2023-02-26T01:20:03.170Z,1.77
2023-02-26T01:22:51.014Z,1.77
2023-02-26T01:25:35.898Z,1.30
2023-02-26T01:28:02.943Z,1.70
2023-02-26T01:30:30.067Z,1.98
2023-02-26T01:33:13.401Z,1.50
2023-02-26T01:35:44.101Z,1.60
2023-02-26T01:38:39.655Z,1.40
2023-02-26T01:41:25.132Z,1.75
2023-02-26T01:43:59.869Z,1.95
2023-02-26T01:47:09.924Z,1.43
2023-02-26T01:49:37.166Z,1.63
2023-02-26T01:52:27.033Z,1.60
2023-02-26T01:54:53.890Z,1.52
2023-02-26T01:57:22.009Z,1.95
2023-02-26T01:59:51.318Z,1.60
2023-02-26T02:02:21.320Z,1.33
2023-02-26T02:04:49.703Z,1.50
2023-02-26T02:07:17.469Z,1.80
2023-02-26T02:09:44.356Z,1.92
2023-02-26T02:12:51.197Z,1.33
2023-02-26T02:15:28.956Z,1.50
2023-02-26T02:18:07.607Z,1.85
2023-02-26T02:20:40.305Z,1.38
2023-02-26T02:23:42.805Z,1.27
2023-02-26T02:26:25.207Z,1.65
2023-02-26T02:29:26.465Z,1.85
2023-02-26T02:32:01.483Z,1.75
2023-02-26T02:34:40.365Z,1.52
2023-02-26T02:37:12.074Z,1.50
2023-02-26T02:39:52.120Z,1.65
2023-02-26T02:42:38.149Z,1.42
2023-02-26T02:47:41.784Z,1.23
2023-02-26T02:50:21.890Z,1.63
2023-02-26T02:52:58.314Z,1.30
2023-02-26T02:55:30.327Z,1.35
2023-02-26T02:58:18.102Z,1.67
2023-02-26T03:00:51.063Z,1.25
2023-02-26T03:03:25.030Z,1.38
2023-02-26T03:05:51.933Z,1.40
2023-02-26T03:08:23.894Z,1.30
2023-02-26T03:10:50.795Z,1.30
2023-02-26T03:13:23.674Z,1.88
2023-02-26T03:16:08.676Z,1.40
2023-02-26T03:18:38.510Z,1.30
2023-02-26T03:21:14.506Z,1.27
2023-02-26T03:24:00.196Z,1.42
2023-02-26T03:26:31.594Z,1.70
2023-02-26T03:29:29.305Z,1.50
2023-02-26T03:32:00.899Z,1.55
2023-02-26T03:34:32.566Z,1.15
2023-02-26T03:37:19.121Z,1.73
2023-02-26T03:39:51.085Z,1.30
2023-02-26T03:42:40.017Z,1.55
2023-02-26T03:45:24.931Z,1.88
2023-02-26T03:47:53.923Z,1.92
2023-02-26T03:50:26.583Z,1.42
2023-02-26T03:52:54.659Z,1.60
2023-02-26T03:55:36.183Z,1.60
2023-02-26T03:58:03.133Z,1.58
2023-02-26T04:00:31.523Z,1.30
2023-02-26T04:03:15.652Z,1.40
2023-02-26T04:05:48.692Z,1.30
2023-02-26T04:08:15.396Z,1.35
2023-02-26T04:10:49.130Z,1.30
2023-02-26T04:13:15.867Z,1.20
2023-02-26T04:15:42.719Z,1.48
2023-02-26T04:18:09.553Z,1.30
2023-02-26T04:20:36.346Z,1.30
2023-02-26T04:23:03.215Z,1.30
2023-02-26T04:25:29.976Z,1.52
2023-02-26T04:27:57.224Z,1.23
2023-02-26T04:30:23.978Z,1.63
2023-02-26T04:32:50.809Z,1.73
2023-02-26T04:35:17.703Z,1.40
2023-02-26T04:37:44.495Z,1.55
2023-02-26T04:40:11.950Z,1.70
2023-02-26T04:42:38.764Z,1.80
2023-02-26T04:45:06.094Z,1.30
2023-02-26T04:47:32.945Z,1.20
2023-02-26T04:49:59.888Z,1.55
2023-02-26T04:52:26.724Z,1.27
2023-02-26T04:54:53.558Z,1.33
2023-02-26T04:57:20.349Z,1.58
2023-02-26T04:59:47.160Z,1.40
2023-02-26T05:02:14.420Z,1.60
2023-02-26T05:04:41.366Z,1.20
2023-02-26T05:07:08.232Z,1.30
2023-02-26T05:09:35.019Z,1.20
2023-02-26T05:12:01.782Z,1.30
2023-02-26T05:14:28.602Z,1.30
2023-02-26T05:16:55.388Z,1.55
2023-02-26T05:19:22.132Z,1.45
2023-02-26T05:21:48.927Z,1.50
2023-02-26T05:24:16.640Z,1.63
2023-02-26T05:26:43.472Z,1.45
2023-02-26T05:29:10.264Z,1.40
2023-02-26T05:31:37.147Z,1.73
2023-02-26T05:34:04.128Z,1.45
2023-02-26T05:36:30.896Z,1.38
2023-02-26T05:38:57.685Z,1.77
2023-02-26T05:41:24.505Z,1.45
2023-02-26T05:43:51.524Z,1.20
2023-02-26T05:46:18.477Z,1.90
2023-02-26T05:48:45.964Z,1.30
2023-02-26T05:51:12.863Z,1.40
2023-02-26T05:53:39.668Z,1.25
2023-02-26T05:56:06.843Z,1.40
2023-02-26T05:58:33.850Z,1.33
2023-02-26T06:01:01.155Z,1.40
2023-02-26T06:03:27.948Z,1.48
2023-02-26T06:05:54.737Z,1.30
2023-02-26T06:08:21.630Z,1.58
2023-02-26T06:10:50.716Z,1.23
2023-02-26T06:13:17.662Z,1.63
2023-02-26T06:15:44.762Z,1.50
2023-02-26T06:18:11.563Z,1.20
2023-02-26T06:20:38.291Z,1.52
2023-02-26T06:23:05.029Z,1.35
2023-02-26T06:25:31.816Z,1.13
2023-02-26T06:27:58.570Z,1.30
2023-02-26T06:30:25.521Z,1.35
2023-02-26T06:32:52.302Z,1.65
2023-02-26T06:35:19.294Z,1.70
2023-02-26T06:37:46.024Z,1.80
2023-02-26T06:40:14.064Z,1.52
2023-02-26T06:42:40.804Z,1.30
2023-02-26T06:45:08.201Z,1.30
2023-02-26T06:47:34.920Z,1.50
2023-02-26T06:50:03.686Z,1.63
2023-02-26T06:52:30.514Z,1.77
2023-02-26T06:54:57.257Z,1.48
2023-02-26T06:57:24.098Z,1.48
2023-02-26T06:59:51.060Z,1.77
2023-02-26T07:02:20.049Z,1.40
2023-02-26T07:04:47.182Z,1.75
2023-02-26T07:07:14.378Z,1.63
2023-02-26T07:09:41.338Z,1.40
2023-02-26T07:12:08.159Z,1.73
2023-02-26T07:14:35.398Z,1.20
2023-02-26T07:17:04.755Z,1.55
2023-02-26T07:19:31.609Z,1.75
2023-02-26T07:21:58.393Z,1.50
2023-02-26T07:24:25.186Z,1.40
2023-02-26T07:26:52.257Z,1.60
2023-02-26T07:29:19.956Z,1.73
2023-02-26T07:31:47.296Z,1.40
2023-02-26T07:34:14.251Z,1.38
2023-02-26T07:36:41.143Z,1.63
2023-02-26T07:39:07.947Z,1.38
2023-02-26T07:41:34.769Z,1.60
2023-02-26T07:44:01.536Z,1.70
2023-02-26T07:46:28.913Z,1.70
2023-02-26T07:48:55.958Z,1.50
2023-02-26T07:51:22.958Z,1.55
2023-02-26T07:53:49.843Z,1.60
2023-02-26T07:56:16.603Z,1.58
2023-02-26T07:58:43.461Z,1.70
2023-02-26T08:01:10.341Z,1.58
2023-02-26T08:03:37.578Z,1.55
2023-02-26T08:06:05.111Z,1.60
2023-02-26T08:08:31.871Z,1.35
2023-02-26T08:10:59.891Z,1.75
2023-02-26T08:13:26.849Z,1.50
2023-02-26T08:15:53.703Z,1.80
2023-02-26T08:18:20.619Z,1.25
2023-02-26T08:20:52.251Z,1.60
2023-02-26T08:23:19.739Z,1.45
2023-02-26T08:25:46.608Z,1.83
2023-02-26T08:28:13.565Z,1.65
2023-02-26T08:30:41.026Z,1.25
2023-02-26T08:33:07.867Z,1.40
2023-02-26T08:35:34.643Z,1.67
2023-02-26T08:38:01.442Z,1.30
2023-02-26T08:40:28.290Z,1.75
2023-02-26T08:42:55.024Z,1.67
2023-02-26T08:45:21.874Z,1.70
2023-02-26T08:47:56.665Z,1.30
2023-02-26T08:50:25.100Z,1.48
2023-02-26T08:52:51.818Z,1.50
2023-02-26T08:55:18.747Z,1.52
2023-02-26T08:57:45.654Z,1.58
2023-02-26T09:00:13.268Z,1.00
2023-02-26T09:02:40.526Z,1.50
2023-02-26T09:05:07.688Z,1.33
2023-02-26T09:07:34.548Z,1.60
2023-02-26T09:10:01.341Z,1.38
2023-02-26T09:12:28.369Z,1.27
2023-02-26T09:14:55.158Z,1.50
2023-02-26T09:17:22.125Z,1.33
2023-02-26T09:19:49.217Z,1.70
2023-02-26T09:22:15.987Z,1.30
2023-02-26T09:24:42.868Z,1.40
2023-02-26T09:27:09.795Z,1.00
2023-02-26T09:29:38.785Z,1.60
2023-02-26T09:32:05.702Z,1.58
2023-02-26T09:34:32.734Z,1.17
2023-02-26T09:36:59.466Z,1.45
2023-02-26T09:39:26.411Z,1.55
2023-02-26T09:41:57.141Z,1.50
2023-02-26T09:44:32.927Z,1.27
2023-02-26T09:47:13.079Z,1.52
2023-02-26T09:49:49.114Z,1.40
2023-02-26T09:52:31.924Z,1.40
2023-02-26T09:55:03.689Z,1.58
2023-02-26T09:57:32.741Z,1.55
2023-02-26T10:00:00.229Z,1.52
2023-02-26T10:02:47.845Z,1.80
2023-02-26T10:05:23.010Z,1.50
2023-02-26T10:08:05.467Z,1.25
2023-02-26T10:11:10.544Z,1.38
2023-02-26T10:13:57.750Z,1.10
2023-02-26T10:16:29.115Z,1.38
2023-02-26T10:19:06.186Z,1.55
2023-02-26T10:21:40.370Z,1.55
2023-02-26T10:24:15.089Z,2.40
2023-02-26T10:26:56.519Z,1.23
2023-02-26T10:30:00.996Z,1.65
2023-02-26T10:32:35.980Z,1.17
2023-02-26T10:35:12.266Z,1.30
2023-02-26T10:37:44.587Z,1.30
2023-02-26T10:40:46.673Z,1.50
2023-02-26T10:43:30.158Z,0.98
2023-02-26T10:46:06.543Z,1.52
2023-02-26T10:49:04.020Z,1.52
2023-02-26T10:51:39.073Z,1.30
2023-02-26T10:54:15.229Z,1.50
2023-02-26T10:56:42.270Z,1.50
2023-02-26T10:59:09.154Z,1.70
2023-02-26T11:01:36.815Z,1.63
2023-02-26T11:04:14.638Z,1.40
2023-02-26T11:06:46.403Z,1.10
2023-02-26T11:09:34.623Z,1.08
2023-02-26T11:12:12.621Z,1.52
2023-02-26T11:14:39.855Z,1.10
2023-02-26T11:17:29.793Z,1.02
2023-02-26T11:19:58.006Z,1.10
2023-02-26T11:22:32.104Z,1.48
2023-02-26T11:24:59.807Z,1.40
2023-02-26T11:27:38.178Z,1.50
2023-02-26T11:30:14.478Z,1.10
2023-02-26T11:32:41.582Z,1.20
2023-02-26T11:35:09.420Z,1.27
2023-02-26T11:37:40.949Z,1.38
2023-02-26T11:40:18.819Z,1.27
2023-02-26T11:43:03.529Z,1.65
2023-02-26T11:45:30.504Z,0.93
2023-02-26T11:48:04.876Z,1.55
2023-02-26T11:50:43.538Z,1.20
2023-02-26T11:53:25.201Z,0.95
2023-02-26T11:55:53.406Z,1.15
2023-02-26T11:58:24.817Z,1.30
2023-02-26T12:00:58.961Z,1.20
2023-02-26T12:03:33.434Z,1.00
2023-02-26T12:06:01.634Z,1.60
2023-02-26T12:08:35.520Z,1.00
2023-02-26T12:11:11.435Z,1.73
2023-02-26T12:14:18.403Z,1.00
2023-02-26T12:17:22.563Z,1.10
2023-02-26T12:19:49.378Z,1.23
2023-02-26T12:22:32.226Z,1.40
2023-02-26T12:25:10.938Z,1.08
2023-02-26T12:28:09.036Z,1.55
2023-02-26T12:30:40.719Z,3.55
2023-02-26T12:33:19.543Z,1.58
2023-02-26T12:35:49.564Z,1.15
2023-02-26T12:38:35.061Z,1.52
2023-02-26T12:41:07.697Z,1.50
2023-02-26T12:43:55.399Z,1.30
2023-02-26T12:46:40.339Z,1.20
2023-02-26T12:49:28.724Z,1.50
2023-02-26T12:52:09.588Z,1.52
2023-02-26T12:54:44.980Z,1.25
2023-02-26T12:57:24.728Z,1.20
2023-02-26T13:00:03.346Z,1.20
2023-02-26T13:02:55.961Z,1.63
2023-02-26T13:05:57.644Z,1.40
2023-02-26T13:08:45.741Z,1.20
2023-02-26T13:11:29.273Z,1.20
2023-02-26T13:14:08.195Z,2.13
2023-02-26T13:17:02.170Z,1.08
2023-02-26T13:20:01.471Z,1.80
2023-02-26T13:22:44.077Z,1.00
2023-02-26T13:25:34.351Z,1.25
2023-02-26T13:28:05.421Z,1.35
2023-02-26T13:30:44.825Z,2.30
2023-02-26T13:33:20.453Z,1.27
2023-02-26T13:35:50.808Z,1.70
2023-02-26T13:38:20.286Z,1.33
2023-02-26T13:40:53.306Z,3.15
2023-02-26T13:43:45.018Z,1.70
2023-02-26T13:46:23.653Z,1.48
2023-02-26T13:49:11.870Z,0.88
2023-02-26T13:51:38.690Z,1.05
2023-02-26T13:54:14.046Z,1.23
2023-02-26T13:56:46.879Z,1.40
2023-02-26T13:59:14.585Z,1.17
2023-02-26T14:02:20.991Z,2.38
2023-02-26T14:04:57.907Z,1.38
2023-02-26T14:07:48.729Z,1.40
2023-02-26T14:10:26.059Z,1.23
2023-02-26T14:13:17.516Z,1.17
2023-02-26T14:16:00.860Z,0.90
2023-02-26T14:18:43.967Z,1.05
2023-02-26T14:21:58.030Z,1.10
2023-02-26T14:24:49.449Z,1.00
2023-02-26T14:27:16.190Z,1.67
2023-02-26T14:29:57.261Z,1.42
2023-02-26T14:32:32.070Z,1.52
2023-02-26T14:35:14.913Z,1.57
2023-02-26T14:37:43.788Z,2.15
2023-02-26T14:40:18.482Z,2.53
2023-02-26T14:42:51.358Z,1.83
2023-02-26T14:45:53.558Z,1.90
2023-02-26T14:48:23.836Z,1.40
2023-02-26T14:51:01.569Z,0.98
2023-02-26T14:54:01.849Z,0.95
2023-02-26T14:56:59.451Z,1.10
2023-02-26T14:59:32.553Z,0.85
2023-02-26T15:02:30.348Z,1.15
2023-02-26T15:05:40.762Z,1.42
2023-02-26T15:08:25.619Z,1.60
2023-02-26T15:10:57.988Z,1.67
2023-02-26T15:13:58.628Z,1.25
2023-02-26T15:17:01.966Z,2.28
2023-02-26T15:19:43.415Z,2.90
2023-02-26T15:22:38.176Z,1.20
2023-02-26T15:25:13.455Z,1.00
2023-02-26T15:27:40.210Z,1.20
2023-02-26T15:30:07.639Z,0.93
2023-02-26T15:32:38.022Z,0.70
2023-02-26T15:35:19.134Z,1.20
2023-02-26T15:38:04.921Z,0.70
2023-02-26T15:40:36.952Z,0.90
2023-02-26T15:43:06.298Z,1.55
2023-02-26T15:45:36.700Z,1.70
2023-02-26T15:48:16.166Z,1.10
2023-02-26T15:50:46.674Z,0.85
2023-02-26T15:53:37.898Z,1.20
2023-02-26T15:56:12.601Z,1.27
2023-02-26T15:58:46.174Z,1.10
2023-02-26T16:01:18.642Z,1.35
2023-02-26T16:03:46.748Z,1.25
2023-02-26T16:06:18.596Z,0.93
2023-02-26T16:08:45.481Z,0.90
2023-02-26T16:11:13.634Z,0.77
2023-02-26T16:13:43.626Z,0.85
2023-02-26T16:16:40.743Z,1.42
2023-02-26T16:19:13.479Z,1.20
2023-02-26T16:21:41.703Z,0.98
2023-02-26T16:24:15.303Z,1.40
2023-02-26T16:26:47.042Z,1.50
2023-02-26T16:29:22.758Z,1.73
2023-02-26T16:34:44.220Z,1.70
2023-02-26T16:37:33.516Z,1.42
2023-02-26T16:40:20.977Z,1.60
2023-02-26T16:42:50.611Z,3.60
2023-02-26T16:45:17.538Z,3.10
2023-02-26T16:47:48.002Z,2.38
2023-02-26T16:50:31.430Z,2.13
2023-02-26T16:53:00.092Z,3.00
2023-02-26T16:55:29.730Z,2.22
2023-02-26T16:57:56.873Z,1.65
2023-02-26T17:00:25.712Z,1.88
2023-02-26T17:02:52.492Z,2.00
2023-02-26T17:05:30.250Z,1.90
2023-02-26T17:08:14.608Z,1.83
2023-02-26T17:10:47.773Z,1.80
2023-02-26T17:13:26.217Z,2.90
2023-02-26T17:15:54.222Z,2.20
2023-02-26T17:18:22.158Z,4.28
2023-02-26T17:20:49.970Z,3.08
2023-02-26T17:23:18.635Z,4.88
2023-02-26T17:25:48.335Z,6.32
2023-02-26T17:28:25.439Z,2.80
2023-02-26T17:30:53.673Z,4.22
2023-02-26T17:33:21.315Z,3.90
2023-02-26T17:35:48.824Z,3.65
2023-02-26T17:38:16.506Z,3.33
2023-02-26T17:40:45.892Z,3.10
2023-02-26T17:43:12.736Z,2.40
2023-02-26T17:45:41.190Z,2.85
2023-02-26T17:48:08.709Z,1.80
2023-02-26T17:50:47.516Z,2.10
2023-02-26T17:53:16.022Z,1.83
2023-02-26T17:55:43.232Z,2.70
2023-02-26T17:58:30.761Z,2.03
2023-02-26T18:00:57.751Z,1.65
2023-02-26T18:03:24.718Z,1.50
2023-02-26T18:05:53.532Z,1.35
2023-02-26T18:08:31.905Z,1.38
2023-02-26T18:11:00.427Z,1.58
2023-02-26T18:13:28.099Z,1.63
2023-02-26T18:15:55.648Z,2.30
2023-02-26T18:18:23.473Z,2.38
2023-02-26T18:20:51.173Z,2.63
2023-02-26T18:23:17.970Z,2.35
2023-02-26T18:25:47.667Z,2.42
2023-02-26T18:28:21.343Z,2.20
2023-02-26T18:30:49.147Z,2.30
2023-02-26T18:33:16.130Z,2.78
2023-02-26T18:35:49.028Z,3.63
2023-02-26T18:38:19.189Z,2.95
2023-02-26T18:40:49.713Z,3.47
2023-02-26T18:43:16.620Z,2.97
2023-02-26T18:45:45.586Z,3.00
2023-02-26T18:48:14.949Z,3.28
2023-02-26T18:50:42.661Z,3.47
2023-02-26T18:53:09.544Z,3.95
2023-02-26T18:55:37.209Z,3.33
2023-02-26T18:58:04.288Z,3.20
2023-02-26T19:00:31.284Z,2.83
2023-02-26T19:02:58.163Z,2.80
2023-02-26T19:05:25.397Z,3.20
2023-02-26T19:07:53.443Z,3.45
2023-02-26T19:10:20.669Z,3.55
2023-02-26T19:12:47.512Z,2.97
2023-02-26T19:15:14.519Z,3.35
2023-02-26T19:17:42.258Z,4.47
2023-02-26T19:20:09.930Z,3.97
2023-02-26T19:22:36.875Z,5.38
2023-02-26T19:25:04.596Z,4.63
2023-02-26T19:27:31.527Z,3.33
2023-02-26T19:29:58.428Z,3.92
2023-02-26T19:32:25.382Z,4.20
2023-02-26T19:34:54.730Z,3.70
2023-02-26T19:37:21.665Z,3.80
2023-02-26T19:39:48.397Z,4.20
2023-02-26T19:42:15.496Z,4.10
2023-02-26T19:44:42.551Z,4.00
2023-02-26T19:47:09.346Z,4.32
2023-02-26T19:49:36.189Z,4.65
2023-02-26T19:52:03.174Z,4.82
2023-02-26T19:54:30.018Z,4.55
2023-02-26T19:56:56.911Z,4.18
2023-02-26T19:59:23.740Z,4.80
2023-02-26T20:01:50.513Z,4.60
2023-02-26T20:04:18.468Z,4.65
2023-02-26T20:06:45.449Z,4.18
2023-02-26T20:09:12.258Z,5.13
2023-02-26T20:11:39.229Z,4.78
2023-02-26T20:14:06.697Z,5.47
2023-02-26T20:16:33.462Z,4.60
2023-02-26T20:19:00.754Z,5.18
2023-02-26T20:21:27.924Z,4.78
2023-02-26T20:23:58.609Z,4.82
2023-02-26T20:26:25.435Z,5.00
2023-02-26T20:28:52.254Z,4.63
2023-02-26T20:31:19.299Z,4.82
2023-02-26T20:33:46.230Z,4.68
2023-02-26T20:36:13.086Z,5.22
2023-02-26T20:38:39.825Z,4.13
2023-02-26T20:41:06.793Z,4.70
2023-02-26T20:43:33.840Z,5.03
2023-02-26T20:46:01.274Z,5.90
2023-02-26T20:48:28.241Z,5.30
2023-02-26T20:51:02.972Z,4.55
2023-02-26T20:53:29.779Z,5.10
2023-02-26T20:55:56.726Z,4.60
2023-02-26T20:58:24.637Z,4.78
2023-02-26T21:00:59.411Z,5.38
2023-02-26T21:03:26.577Z,4.15
2023-02-26T21:05:53.624Z,6.32
2023-02-26T21:08:20.465Z,5.78
2023-02-26T21:10:50.323Z,6.13
2023-02-26T21:13:17.201Z,6.05
2023-02-26T21:15:53.353Z,6.07
2023-02-26T21:18:46.261Z,5.72
2023-02-26T21:21:23.260Z,5.72
2023-02-26T21:23:50.364Z,5.18
2023-02-26T21:26:17.353Z,5.60
2023-02-26T21:28:44.234Z,5.55
2023-02-26T21:31:11.149Z,6.30
2023-02-26T21:33:37.956Z,6.20
2023-02-26T21:36:04.817Z,6.13
2023-02-26T21:38:31.577Z,6.38
2023-02-26T21:40:58.479Z,5.45
2023-02-26T21:43:25.254Z,3.72
2023-02-26T21:45:52.098Z,4.20
2023-02-26T21:48:18.861Z,4.40
2023-02-26T21:50:45.691Z,3.95
2023-02-26T21:53:12.502Z,4.13
2023-02-26T21:55:39.341Z,3.90
2023-02-26T21:58:06.350Z,3.80
2023-02-26T22:00:33.343Z,3.47
2023-02-26T22:03:00.159Z,3.72
2023-02-26T22:05:26.975Z,3.60
2023-02-26T22:07:53.767Z,4.30
2023-02-26T22:10:20.650Z,3.92
2023-02-26T22:12:47.597Z,4.35
2023-02-26T22:15:14.440Z,3.75
2023-02-26T22:17:41.176Z,4.13
2023-02-26T22:20:08.693Z,4.45
2023-02-26T22:22:37.225Z,4.95
2023-02-26T22:25:06.020Z,5.05
2023-02-26T22:27:33.266Z,4.90
2023-02-26T22:30:00.117Z,4.50
2023-02-26T22:32:26.914Z,4.65
2023-02-26T22:34:53.705Z,5.60
2023-02-26T22:37:20.480Z,5.85
2023-02-26T22:39:47.273Z,4.85
2023-02-26T22:42:14.125Z,4.53
2023-02-26T22:44:41.167Z,4.85
2023-02-26T22:47:08.005Z,4.40
2023-02-26T22:49:34.997Z,4.70
2023-02-26T22:52:01.797Z,4.53
2023-02-26T22:54:28.886Z,5.75
2023-02-26T22:56:55.694Z,5.13
2023-02-26T22:59:22.484Z,6.15
2023-02-26T23:01:49.677Z,5.50
2023-02-26T23:04:16.482Z,4.53
2023-02-26T23:06:43.297Z,4.88
2023-02-26T23:09:10.142Z,5.72
2023-02-26T23:11:37.104Z,5.88
2023-02-26T23:14:03.983Z,5.78
2023-02-26T23:16:30.847Z,6.05
2023-02-26T23:18:57.589Z,5.82
2023-02-26T23:21:24.787Z,5.57
2023-02-26T23:23:52.028Z,5.60
2023-02-26T23:26:18.820Z,5.65
2023-02-26T23:28:45.623Z,5.53
2023-02-26T23:31:12.670Z,5.10
2023-02-26T23:33:39.498Z,5.45
2023-02-26T23:36:07.141Z,5.82
2023-02-26T23:38:33.983Z,5.60
2023-02-26T23:41:00.781Z,5.32
2023-02-26T23:43:27.828Z,5.60
2023-02-26T23:45:54.647Z,5.85
2023-02-26T23:48:21.502Z,5.18
2023-02-26T23:50:48.760Z,6.45
2023-02-26T23:53:15.596Z,5.38
2023-02-26T23:55:42.383Z,5.45
2023-02-26T23:58:09.429Z,5.55
